Stacja Pogody
Warszawa Praga-Północ

Szerokość 52°15'43"N Długość 21°01'22"E Wysokość 110m n.p.m.


142 dzień roku.   Do końca pozostalo 223 dni.   Od wczoraj przybyło 3 min. i 14 sek. dnia.
Wschód Słońca 04:31 Górowanie Słońca 12:32 Zachód Słońca 20:33 bliznieta
Data juliańska 2458261.819 Odległość Słońca 151435256 km Średn. kątowa Słońca 0,316°
Wschód Księżyca 12:03 Zachód Księżyca 01:56 Wiek Księżyca 8 dni Moon
Widoczność Księżyca 51,94% Odległość Księżyca 367949 km Średn. kątowa Księżyca 0,325°
Dzień krótszy od najdłuższego o: 00:45 Długość dnia 16:02 Imieniny Heleny, Wiesławy, Ryty



  Aktualizacja: 22-05-2018 07:39:31
TEMPERATURA
Aktualnie: 14.5°C ↑↑
Temperatura odczuwalna:14.6°C
Punkt rosy7.3°C
WIATR
Średnia prędkość: 0.0km/h →
Prędkość w podmuchach:1.1km/h
Przepływ w ciągu doby:33.9km
Kierunek wiatru:315°
CIŚNIENIE
Względne:1018.5hPa
Trend ciśnienia:powolny spadek
WILGOTNOŚĆ
Wilgotność względna: 63% ↓
Podstawa chmur3035m
DESZCZ
W ostatniej godzinie: 0.0mm
Dzisiaj:0.0mm
W tym miesiącu:9.0mm
METAR
EPWA 220500Z 10007KT CAVOK 13/07 Q1018 NOSIG
Ostrzeżenia burzowe
Prognoza 12-to godzinna (prawdopodobieństwo 75%):   Dobra pogoda prognoza





a  a